Historyczne dane pomiarowe

Dodano dane terminowe – wersja testowa.

Dane z okresu 1951-2019

Wersja bazy: 1.34 [2019-03-16, lista zmian], aktualizacja planowana na 2019-04-15

Dane meteo z obszaru Polski uzyskane na podstawie danych udostępnionych przez Instytut Meteorologii i Gospodarki Wodnej – Państwowy Instytut Badawczy.

 

Wybierz Datę:    

       

TemperaturaWilgotnośćWiatrCiśnienieOpadyŚniegCzas trwania zjawisk
 Stacja t tx tn tng RH VA  wxwx mslp ppp RRR   cm mm wxwxwxwxwxwxwx
1994-08-14 14.9 19.8 12.0- 59.8- 4.7 3.0---- 0.0------------
1994-08-13 16.3 23.0 11.0- 73.5- 5.0 1.3---- 1.3------------
1994-08-12 15.5 21.0 11.5- 85.5- 7.3 1.3---- 0.4------------
1994-08-11 17.6 26.8 12.9- 83.3- 5.3 1.7---- 35.4------------
1994-08-10 19.8 26.5 9.1- 69.8- 2.0 0.3---- 0.0------------
1994-08-09 18.8 24.8 13.7- 78.0- 5.0 2.7---- 2.3------------
1994-08-08 21.2 28.9 12.8- 75.3- 5.7 2.3---- 18.1------------
1994-08-07 20.8 29.0 12.0- 70.8- 5.0 1.0---- 0.0------------
1994-08-06 21.7 30.3 8.9- 57.5- 2.3 1.7---- 0.0------------
1994-08-05 21.6 28.8 10.7- 63.3- 0.7 2.0---- 0.0------------
1994-08-04 20.3 27.0 13.4- 75.5- 4.7 3.0---- 0.0------------
1994-08-03 20.2 28.9 12.5- 77.5- 5.7 2.3---- 0.2------------
1994-08-02 23.0 31.7 11.8- 55.3- 2.3 2.0---- 0.0------------
1994-08-01 23.7 32.3 12.0- 57.0- 4.0 2.7---- 0.0------------
1994-07-31 23.1 31.6 11.1- 59.3- 1.0 1.3---- 0.0------------
1994-07-30 23.1 31.9 9.9- 54.8- 0.7 1.0---- 0.0------------
1994-07-29 22.3 31.4 8.7- 51.8- 0.3 2.0---- 0.0------------
1994-07-28 22.9 30.2 10.9- 59.5- 2.0 1.7---- 0.0------------
1994-07-27 21.9 30.8 9.5- 61.5- 2.3 0.7---- 0.0------------
1994-07-26 21.8 29.6 11.8- 59.0- 2.0 1.7---- 0.0------------
1994-07-25 21.2 28.7 10.2- 61.3- 4.0 1.7---- 0.0------------
1994-07-24 20.0 27.6 7.8- 63.8- 2.3 2.3---- 0.0------------
1994-07-23 19.0 26.5 6.5- 59.5- 1.7 2.0---- 0.0------------
1994-07-22 18.2 25.4 5.5- 62.5- 1.0 3.7---- 0.0------------
1994-07-21 16.2 24.0 4.5- 65.8- 1.0 2.3---- 0.0------------
1994-07-20 16.7 21.4 7.4- 64.0- 2.7 4.0---- 0.0------------
1994-07-19 17.8 23.8 10.5- 74.3- 5.0 3.3---- 0.0------------
1994-07-18 19.3 25.1 14.7- 79.0- 6.3 2.3---- 0.0------------
1994-07-17 19.4 27.1 10.4- 78.3- 4.3 2.0---- 4.9------------
1994-07-16 20.1 28.0 12.0- 79.0- 4.3 2.0---- 0.0------------
1994-07-15 19.6 26.0 9.3- 72.0- 3.3 1.0---- 0.0------------
1994-07-14 18.7 26.6 8.9- 71.5- 5.3 2.3---- 0.0------------
1994-07-13 19.4 25.6 8.3- 67.5- 4.3 1.7---- 0.0------------
1994-07-12 19.3 24.1 14.4- 70.8- 3.7 2.3---- 0.0------------
1994-07-11 15.8 20.7 10.6- 81.8- 8.0 5.0---- 0.0------------
1994-07-10 13.9 18.7 9.9- 84.5- 7.3 2.3---- 0.0------------
1994-07-09 12.7 18.3 6.3- 82.8- 6.7 1.0---- 1.8------------
1994-07-08 16.7 20.7 13.6- 69.8- 4.3 3.7---- 0.0------------
1994-07-07 15.9 24.3 6.0- 76.0- 7.0 0.3---- 4.6------------
1994-07-06 17.9 22.8 9.5- 66.8- 2.0 3.3---- 0.0------------
1994-07-05 18.9 25.7 8.0- 66.5- 6.0 2.0---- 0.0------------
1994-07-04 19.0 26.8 5.6- 57.0- 2.0 1.3---- 0.0------------
1994-07-03 17.1 24.7 4.0- 59.5- 0.7 1.3---- 0.0------------
1994-07-02 15.9 22.3 5.3- 67.0- 0.7 3.3---- 0.0------------
1994-07-01 18.7 21.5 16.2- 66.5- 3.7 3.3---- 0.0------------
1994-06-30 20.6 27.3 14.0- 85.3- 5.3 2.3---- 0.1------------
1994-06-29 21.7 30.2 11.2- 73.3- 1.0 0.7---- 0.0------------
1994-06-28 22.0 28.3 13.3- 74.5- 1.3 2.0---- 0.0------------
1994-06-27 21.8 28.3 13.5- 69.3- 3.0 1.7---- 0.0------------
1994-06-26 17.7 25.1 5.9- 61.8- 0.3 4.0---- 0.0------------
1994-06-25 13.5 22.0 0.5- 62.5- 0.0 1.3---- 0.0------------
1994-06-24 12.7 19.0 2.3- 58.0- 0.7 3.7---- 0.0------------
1994-06-23 15.7 20.7 11.6- 69.8- 4.3 3.7---- 0.0------------
1994-06-22 17.0 25.8 4.1- 68.3- 4.3 0.7---- 0.4------------
1994-06-21 13.3 18.6 3.9- 68.5- 1.0 3.3---- 0.0------------
1994-06-20 16.9 20.6 7.0- 74.0- 2.0 3.3---- 0.0------------
1994-06-19 15.6 24.1 9.5- 85.8- 5.7 3.0---- 0.0------------
1994-06-18 10.6 17.0 0.8- 73.0- 5.3 1.7---- 10.5------------
1994-06-17 10.2 14.9 6.9- 77.0- 6.3 4.3---- 0.0------------
1994-06-16 11.6 18.1 3.0- 73.3- 5.3 2.3---- 1.3------------
216.6 ms

 

Źródłem pochodzenia danych jest Instytut Meteorologii i Gospodarki Wodnej – Państwowy Instytut Badawczy. Dane Instytutu Meteorologii i Gospodarki Wodnej – Państwowego Instytutu Badawczego zostały przetworzone.

Dane źródłowe można odnaleźć na stronie https://dane.imgw.pl